Main page
METAR-TAF:

METAR-TAF

Airports :

South St. Paul Municipal Airport (Richard E. Fleming Field)

South St. Paul, Minnesota, United States

latitude: 44-51-26N, longitude: 093-01-58W, elevation: 820 ft

Current weather observation

The report was made 16 minutes ago, at 19:35 UTC
Wind 8 mph from the Southwest
Temperature 52°F
Humidity 35%
Pressure 29.88 in. Hg
Visibility: 10 miles
Clear sky

METAR: KSGS 281935Z AUTO 22007KT 10SM CLR 11/M04 A2988 RMK AO2 T01091043 PWINO

Time: 13:51 (19:51 UTC)


TAF: missing

Weather observations and forecasts of more than 4000 airports (METAR and TAF reports).

The available stations are represented by yellow and red dots on the map.

Hover mouse over dot to see the name of the station.

Then click to see weather observations and forecasts.

To change the map : click on the green buttons with a black cross to zoom in, on the green button with a dash to zoom out, or on the green arrows for adjacent maps.


METAR-TAF: